Time;durP1;ratioP1;P1;durP2;ratioP2;P2;SDS_P1;SDS_P2;PMS_P1;PMS_P2;Temp;Humidity;BMP_temperature;BMP_pressure;BME280_temperature;BME280_humidity;BME280_pressure;Samples;Min_cycle;Max_cycle;Signal;HPM_P1;HPM_P2
2022/12/27 00:00:08;;;;;;;10.35;1.63;;;14.70;76.30;;;;;;4208290;28;20509;-61
2022/12/27 00:02:55;;;;;;;4.70;1.40;;;14.70;75.60;;;;;;4208161;28;20051;-61
2022/12/27 00:05:36;;;;;;;2.90;1.40;;;14.80;75.30;;;;;;4208531;28;20613;-61
2022/12/27 00:08:17;;;;;;;7.18;1.63;;;14.80;75.00;;;;;;4208569;28;20059;-61
2022/12/27 00:11:04;;;;;;;3.22;1.42;;;14.80;74.80;;;;;;4208495;28;20150;-61
2022/12/27 00:13:47;;;;;;;2.67;1.55;;;14.80;74.50;;;;;;4208411;28;20112;-61
2022/12/27 00:16:29;;;;;;;7.65;1.50;;;14.90;74.70;;;;;;4208802;28;20047;-61
2022/12/27 00:19:09;;;;;;;6.97;1.70;;;14.80;74.60;;;;;;4208396;28;20058;-61
2022/12/27 00:21:50;;;;;;;5.53;1.40;;;14.90;74.70;;;;;;4208166;28;20486;-61
2022/12/27 00:24:31;;;;;;;3.95;1.48;;;14.90;74.30;;;;;;4208367;28;20063;-61
2022/12/27 00:27:12;;;;;;;8.13;1.85;;;14.90;74.10;;;;;;4207794;28;20387;-61
2022/12/27 00:29:54;;;;;;;7.38;1.80;;;14.90;73.90;;;;;;4206725;28;20126;-61
2022/12/27 00:32:35;;;;;;;6.93;1.33;;;14.90;74.00;;;;;;4191831;28;20064;-61
2022/12/27 00:35:16;;;;;;;5.70;1.52;;;14.90;74.00;;;;;;4191523;28;20113;-61
2022/12/27 00:37:57;;;;;;;8.32;2.75;;;14.90;74.00;;;;;;4191151;28;20463;-61
2022/12/27 00:40:39;;;;;;;7.47;1.75;;;15.00;74.00;;;;;;4191298;28;20055;-61
2022/12/27 00:43:20;;;;;;;;;;;15.00;73.70;;;;;;4203185;28;20047;-61
2022/12/27 00:46:10;;;;;;;8.68;1.83;;;15.10;73.70;;;;;;4219075;28;20415;-61
2022/12/27 00:48:51;;;;;;;5.35;1.40;;;15.10;73.20;;;;;;4208203;28;20059;-61
2022/12/27 00:51:32;;;;;;;7.63;1.58;;;15.10;73.20;;;;;;4208187;28;20059;-61
2022/12/27 00:54:13;;;;;;;3.55;1.27;;;15.10;73.20;;;;;;4208582;28;20055;-61
2022/12/27 00:56:53;;;;;;;5.10;1.55;;;15.00;73.10;;;;;;4210816;28;20059;-62
2022/12/27 00:59:35;;;;;;;5.03;1.35;;;15.00;73.10;;;;;;4210565;28;20070;-62
2022/12/27 01:02:18;;;;;;;3.45;1.20;;;15.00;73.30;;;;;;4211297;28;20051;-61
2022/12/27 01:04:58;;;;;;;5.53;1.55;;;15.00;73.30;;;;;;4210951;28;20051;-62
2022/12/27 01:07:39;;;;;;;7.25;1.25;;;15.10;73.00;;;;;;4210891;28;20169;-61
2022/12/27 01:10:20;;;;;;;7.15;1.38;;;15.10;72.80;;;;;;4196611;28;20410;-62
2022/12/27 01:13:02;;;;;;;3.75;1.20;;;15.10;72.70;;;;;;4209694;28;20494;-62
2022/12/27 01:15:42;;;;;;;2.67;1.70;;;15.10;72.70;;;;;;4209539;28;20063;-62
2022/12/27 01:18:25;;;;;;;6.88;1.38;;;15.10;72.70;;;;;;4210428;28;20051;-62
2022/12/27 01:21:07;;;;;;;5.40;1.25;;;15.10;72.60;;;;;;4210950;28;20063;-62
2022/12/27 01:23:48;;;;;;;6.65;1.88;;;15.10;72.80;;;;;;4210849;28;20110;-61
2022/12/27 01:26:30;;;;;;;5.82;1.40;;;15.10;72.80;;;;;;4210856;28;20116;-62
2022/12/27 01:29:12;;;;;;;4.93;1.25;;;15.20;72.60;;;;;;4210479;28;20054;-62
2022/12/27 01:31:53;;;;;;;5.43;1.65;;;15.30;72.40;;;;;;4210448;28;20054;-62
2022/12/27 01:34:35;;;;;;;6.60;1.70;;;15.30;71.90;;;;;;4210150;28;20558;-61
2022/12/27 01:37:16;;;;;;;5.75;1.30;;;15.40;71.70;;;;;;4210318;28;20313;-62
2022/12/27 01:39:57;;;;;;;4.18;1.60;;;15.40;71.60;;;;;;4209735;28;20617;-61
2022/12/27 01:42:52;;;;;;;5.63;1.52;;;15.50;71.60;;;;;;4193713;28;20062;-62
2022/12/27 01:45:36;;;;;;;4.75;1.17;;;15.50;71.20;;;;;;4193171;28;20051;-62
2022/12/27 01:48:20;;;;;;;9.05;1.65;;;15.60;70.80;;;;;;4196013;28;20059;-62
2022/12/27 01:51:05;;;;;;;5.90;1.73;;;15.50;70.60;;;;;;4210590;28;20051;-62
2022/12/27 01:53:49;;;;;;;5.68;1.60;;;15.60;70.80;;;;;;4210275;28;20058;-62
2022/12/27 01:56:31;;;;;;;7.72;1.55;;;15.60;70.70;;;;;;4197442;28;20062;-62
2022/12/27 01:59:14;;;;;;;7.53;1.55;;;15.60;70.70;;;;;;4210125;28;20047;-62
2022/12/27 02:01:55;;;;;;;7.22;1.90;;;15.60;70.60;;;;;;4210020;28;20059;-62
2022/12/27 02:04:36;;;;;;;3.70;1.63;;;15.50;70.50;;;;;;4209793;28;20067;-61
2022/12/27 02:07:20;;;;;;;5.20;1.38;;;15.50;70.60;;;;;;4209911;28;20055;-62
2022/12/27 02:10:03;;;;;;;8.80;2.13;;;15.50;70.80;;;;;;4209269;28;20047;-61
2022/12/27 02:12:44;;;;;;;4.18;1.38;;;15.40;71.00;;;;;;4193319;28;20056;-62
2022/12/27 02:15:25;;;;;;;4.25;1.20;;;15.40;71.20;;;;;;4193068;28;20055;-61
2022/12/27 02:18:06;;;;;;;4.32;1.33;;;15.40;71.40;;;;;;4195575;28;20048;-61
2022/12/27 02:21:21;;;;;;;5.13;1.27;;;15.40;71.20;;;;;;4209848;28;20085;-61
2022/12/27 02:24:40;;;;;;;6.30;1.00;;;15.50;70.80;;;;;;4209721;28;20277;-62
2022/12/27 02:27:38;;;;;;;5.43;1.50;;;15.50;70.70;;;;;;4209075;28;20086;-62
2022/12/27 02:30:21;;;;;;;7.63;1.63;;;15.60;70.50;;;;;;4209602;28;20063;-61
2022/12/27 02:33:07;;;;;;;7.55;1.83;;;15.70;70.00;;;;;;4209462;28;20178;-62
2022/12/27 02:35:53;;;;;;;7.93;1.75;;;15.80;69.60;;;;;;4209508;28;20055;-61
2022/12/27 02:38:39;;;;;;;4.20;1.58;;;15.80;69.40;;;;;;4192718;28;20407;-61
2022/12/27 02:53:31;;;;;;;5.35;1.52;;;15.80;69.30;;;;;;4192162;28;20047;-62
2022/12/27 02:59:37;;;;;;;2.40;0.82;;;15.80;69.20;;;;;;4208772;28;20051;-62
2022/12/27 03:05:42;;;;;;;6.63;1.63;;;15.80;68.90;;;;;;4207668;28;20055;-62
2022/12/27 03:08:33;;;;;;;6.85;1.27;;;15.80;69.30;;;;;;4207312;28;20047;-62
2022/12/27 03:17:26;;;;;;;9.50;1.73;;;15.60;70.30;;;;;;4191707;28;20453;-60
2022/12/27 03:26:17;;;;;;;7.70;1.85;;;15.60;70.10;;;;;;4197601;28;20070;-62
2022/12/27 03:35:08;;;;;;;4.15;1.42;;;15.70;69.70;;;;;;4208470;28;20066;-62
2022/12/27 03:38:04;;;;;;;7.25;1.83;;;15.70;69.70;;;;;;4208560;28;20055;-62
2022/12/27 03:43:49;;;;;;;4.13;1.40;;;15.90;69.40;;;;;;4208365;28;20051;-62
2022/12/27 03:46:34;;;;;;;2.35;1.05;;;16.00;69.00;;;;;;4206823;28;20347;-62
2022/12/27 03:49:23;;;;;;;4.13;1.23;;;16.00;68.60;;;;;;4208641;28;20414;-60
2022/12/27 03:52:09;;;;;;;7.65;2.05;;;16.00;68.60;;;;;;4208714;28;20070;-62
2022/12/27 03:54:51;;;;;;;4.03;1.35;;;16.00;68.90;;;;;;4208153;28;20510;-61
2022/12/27 03:57:32;;;;;;;4.47;1.20;;;16.10;68.80;;;;;;4208035;28;20063;-61
2022/12/27 04:00:14;;;;;;;4.63;1.13;;;16.10;68.40;;;;;;4208328;28;20047;-61
2022/12/27 04:02:57;;;;;;;4.97;1.42;;;16.10;68.40;;;;;;4208751;28;20059;-61
2022/12/27 04:05:38;;;;;;;5.63;1.40;;;16.20;68.40;;;;;;4207175;28;20066;-61
2022/12/27 04:35:08;;;;;;;6.45;1.58;;;16.00;69.60;;;;;;4210829;28;20054;-61
2022/12/27 04:37:49;;;;;;;4.97;2.10;;;15.90;68.90;;;;;;4211278;28;20063;-61
2022/12/27 04:55:26;;;;;;;5.25;1.38;;;15.80;69.50;;;;;;4210577;28;20138;-62
2022/12/27 04:58:07;;;;;;;3.55;1.33;;;15.80;69.50;;;;;;4210808;28;20047;-62
2022/12/27 05:03:54;;;;;;;4.10;1.73;;;15.90;69.30;;;;;;4209976;28;20104;-62
2022/12/27 05:06:35;;;;;;;5.45;1.50;;;15.90;69.30;;;;;;4210859;28;20051;-61
2022/12/27 05:15:15;;;;;;;3.80;1.10;;;15.90;69.40;;;;;;4198915;28;20177;-61
2022/12/27 05:17:58;;;;;;;3.97;1.65;;;16.00;69.10;;;;;;4210807;28;20058;-61
2022/12/27 05:20:39;;;;;;;5.88;1.27;;;16.10;68.80;;;;;;4210654;28;20154;-62
2022/12/27 05:26:20;;;;;;;2.92;1.30;;;16.10;68.70;;;;;;4193445;28;20498;-61
2022/12/27 05:29:01;;;;;;;4.60;1.40;;;16.20;68.70;;;;;;4193612;28;20051;-61
2022/12/27 05:31:42;;;;;;;;;;;16.30;68.30;;;;;;4194350;28;20071;-62
2022/12/27 05:34:24;;;;;;;8.70;1.58;;;16.30;68.10;;;;;;4201053;28;20016;-63
2022/12/27 05:37:05;;;;;;;8.15;1.63;;;16.30;68.00;;;;;;4210273;28;20047;-62
2022/12/27 05:39:46;;;;;;;7.28;1.48;;;16.30;68.00;;;;;;4209077;28;20063;-62
2022/12/27 05:42:27;;;;;;;9.30;1.65;;;16.30;68.20;;;;;;4210259;28;20061;-63
2022/12/27 05:45:08;;;;;;;5.07;2.60;;;16.30;68.20;;;;;;4209852;28;20050;-63
2022/12/27 05:47:49;;;;;;;7.35;1.73;;;16.30;68.20;;;;;;4210135;28;20128;-62
2022/12/27 05:50:32;;;;;;;5.60;1.58;;;16.30;68.30;;;;;;4210339;28;20448;-62
2022/12/27 05:53:25;;;;;;;4.25;1.33;;;16.30;68.30;;;;;;4209641;28;20055;-63
2022/12/27 05:56:06;;;;;;;7.40;1.50;;;16.30;68.40;;;;;;4210038;28;20136;-63
2022/12/27 05:58:47;;;;;;;;;;;16.30;68.20;;;;;;4209393;28;20140;-63
2022/12/27 06:01:28;;;;;;;6.07;1.45;;;16.30;68.50;;;;;;4210280;28;20012;-62
2022/12/27 06:04:09;;;;;;;5.97;1.67;;;16.30;68.30;;;;;;4209359;28;20132;-63
2022/12/27 06:06:52;;;;;;;5.18;1.58;;;16.20;68.30;;;;;;4209944;28;20155;-63
2022/12/27 06:09:32;;;;;;;8.63;1.75;;;16.20;68.20;;;;;;4208822;27;20055;-63
2022/12/27 06:12:13;;;;;;;7.43;1.98;;;16.10;68.30;;;;;;4209521;28;20445;-62
2022/12/27 06:14:54;;;;;;;6.15;1.90;;;16.10;68.70;;;;;;4207756;28;20174;-63
2022/12/27 06:17:35;;;;;;;4.15;1.30;;;16.00;69.00;;;;;;4209920;28;20141;-62
2022/12/27 06:20:16;;;;;;;6.30;1.48;;;15.90;69.30;;;;;;4209820;28;20083;-62
2022/12/27 06:23:00;;;;;;;4.72;1.35;;;15.80;69.80;;;;;;4209656;28;20116;-62
2022/12/27 06:25:41;;;;;;;4.35;1.40;;;15.80;70.20;;;;;;4209958;28;20059;-63
2022/12/27 06:28:21;;;;;;;2.95;1.50;;;15.80;70.10;;;;;;4209657;28;20050;-62
2022/12/27 06:31:03;;;;;;;5.88;1.15;;;15.90;69.90;;;;;;4209537;28;20059;-62
2022/12/27 06:33:45;;;;;;;3.42;1.58;;;15.90;69.60;;;;;;4208233;28;20186;-62
2022/12/27 06:36:26;;;;;;;7.63;1.95;;;15.90;69.60;;;;;;4210023;28;20161;-62
2022/12/27 06:39:08;;;;;;;12.30;2.78;;;16.00;69.60;;;;;;4208296;28;20047;-61
2022/12/27 06:41:53;;;;;;;4.90;1.40;;;16.00;70.20;;;;;;4209281;28;20535;-63
2022/12/27 06:44:35;;;;;;;5.35;1.23;;;16.10;68.90;;;;;;4208727;28;20129;-62
2022/12/27 06:47:16;;;;;;;6.75;1.63;;;16.20;68.70;;;;;;4209444;28;20096;-62
2022/12/27 06:49:58;;;;;;;3.97;1.38;;;16.10;68.60;;;;;;4208101;28;20047;-63
2022/12/27 06:52:39;;;;;;;4.03;1.30;;;16.10;68.80;;;;;;4191648;28;20121;-62
2022/12/27 06:55:21;;;;;;;3.05;1.33;;;16.10;68.90;;;;;;4186936;28;20049;-62
2022/12/27 06:58:02;;;;;;;5.47;1.50;;;16.10;68.90;;;;;;4197600;28;20051;-64
2022/12/27 07:00:43;;;;;;;7.57;1.88;;;16.00;69.00;;;;;;4204344;28;20051;-62
2022/12/27 07:03:24;;;;;;;4.97;2.00;;;16.00;69.10;;;;;;4209371;28;20132;-63
2022/12/27 07:06:07;;;;;;;7.20;1.70;;;16.00;69.50;;;;;;4208900;28;20097;-62
2022/12/27 07:08:48;;;;;;;7.63;1.75;;;16.00;69.50;;;;;;4208472;28;20102;-62
2022/12/27 07:11:32;;;;;;;6.85;1.80;;;16.00;69.50;;;;;;4208814;28;20059;-61
2022/12/27 07:14:13;;;;;;;6.38;2.28;;;16.00;69.90;;;;;;4208435;28;20055;-61
2022/12/27 07:16:54;;;;;;;5.63;1.60;;;16.10;69.90;;;;;;4206538;28;20075;-62
2022/12/27 07:19:36;;;;;;;5.70;1.60;;;16.10;69.80;;;;;;4207502;28;20063;-62
2022/12/27 07:22:16;;;;;;;6.20;1.52;;;16.00;69.90;;;;;;4200781;28;20129;-62
2022/12/27 07:24:57;;;;;;;6.03;1.95;;;16.00;70.10;;;;;;4207717;28;20391;-62
2022/12/27 07:27:40;;;;;;;5.88;1.85;;;15.90;70.20;;;;;;4197405;28;20050;-62
2022/12/27 07:30:20;;;;;;;5.40;2.03;;;15.90;70.20;;;;;;4204125;28;20137;-61
2022/12/27 07:33:02;;;;;;;7.88;1.60;;;15.90;70.40;;;;;;4195593;28;20047;-61
2022/12/27 07:35:45;;;;;;;6.65;2.17;;;15.80;70.50;;;;;;4208025;28;20556;-61
2022/12/27 07:38:30;;;;;;;6.95;1.48;;;15.80;70.70;;;;;;4203034;28;20046;-62
2022/12/27 07:41:14;;;;;;;9.95;1.88;;;15.70;71.00;;;;;;4196472;28;20189;-61
2022/12/27 07:43:57;;;;;;;9.50;2.03;;;15.60;71.30;;;;;;4202084;28;20069;-62
2022/12/27 07:46:38;;;;;;;7.95;1.90;;;15.70;71.60;;;;;;4196608;28;20141;-61
2022/12/27 07:49:20;;;;;;;5.90;1.75;;;15.70;71.40;;;;;;4200101;28;20058;-61
2022/12/27 07:52:01;;;;;;;7.45;2.08;;;15.70;71.20;;;;;;4202557;28;20059;-60
2022/12/27 07:54:45;;;;;;;6.40;1.60;;;15.80;71.10;;;;;;4202297;28;20128;-61
2022/12/27 07:57:27;;;;;;;5.38;1.30;;;15.80;71.00;;;;;;4202781;28;20059;-61
2022/12/27 08:00:12;;;;;;;7.13;1.70;;;15.80;71.00;;;;;;4204995;28;20066;-61
2022/12/27 08:02:56;;;;;;;4.90;1.48;;;15.80;70.80;;;;;;4180825;28;20039;-61
2022/12/27 08:05:45;;;;;;;7.13;2.25;;;15.70;70.90;;;;;;4198554;28;20059;-61
2022/12/27 08:08:32;;;;;;;6.85;1.73;;;15.70;70.90;;;;;;4183123;28;20568;-61
2022/12/27 08:11:14;;;;;;;5.72;1.83;;;15.60;71.40;;;;;;4204035;28;20110;-61
2022/12/27 08:13:57;;;;;;;4.60;1.60;;;15.50;71.60;;;;;;4201796;28;20592;-61
2022/12/27 08:16:43;;;;;;;7.60;2.05;;;15.60;71.80;;;;;;4183396;28;20117;-62
2022/12/27 08:19:24;;;;;;;5.53;1.75;;;15.50;71.70;;;;;;4198015;28;20101;-61
2022/12/27 08:22:09;;;;;;;5.07;1.30;;;15.50;71.80;;;;;;4196560;28;20108;-61
2022/12/27 08:24:51;;;;;;;7.07;1.40;;;15.60;71.80;;;;;;4208143;28;20551;-61
2022/12/27 08:27:33;;;;;;;7.95;2.20;;;15.60;71.70;;;;;;4208067;28;20066;-61
2022/12/27 08:30:14;;;;;;;6.53;1.80;;;15.50;72.50;;;;;;4207191;28;20059;-60
2022/12/27 08:32:57;;;;;;;5.60;1.70;;;15.60;71.70;;;;;;4208634;28;20055;-61
2022/12/27 08:35:42;;;;;;;4.13;1.90;;;15.60;71.50;;;;;;4207738;28;20059;-61
2022/12/27 08:38:33;;;;;;;6.18;1.67;;;15.60;71.30;;;;;;4206943;28;20063;-60
2022/12/27 08:41:14;;;;;;;6.95;1.85;;;15.60;71.20;;;;;;4207736;28;20509;-61
2022/12/27 08:43:55;;;;;;;9.75;1.90;;;15.60;71.00;;;;;;4208853;28;20055;-61
2022/12/27 08:46:36;;;;;;;5.57;1.67;;;15.60;71.10;;;;;;4208054;28;20417;-60
2022/12/27 08:49:18;;;;;;;6.47;1.92;;;15.60;71.10;;;;;;4208870;28;20490;-61
2022/12/27 08:51:58;;;;;;;5.45;2.13;;;15.50;71.20;;;;;;4208054;28;20059;-61
2022/12/27 08:54:39;;;;;;;8.52;1.80;;;15.50;71.60;;;;;;4208849;28;20051;-61
2022/12/27 08:57:20;;;;;;;8.27;1.70;;;15.50;72.00;;;;;;4209044;28;20055;-61
2022/12/27 09:00:02;;;;;;;4.75;1.40;;;15.50;71.70;;;;;;4208942;28;20059;-62
2022/12/27 09:02:43;;;;;;;8.73;1.85;;;15.60;71.60;;;;;;4208587;28;20124;-61
2022/12/27 09:05:27;;;;;;;8.18;2.28;;;15.60;71.40;;;;;;4205460;28;20067;-61
2022/12/27 09:08:08;;;;;;;6.75;1.70;;;15.60;70.90;;;;;;4207893;28;20086;-61
2022/12/27 09:10:49;;;;;;;7.03;1.63;;;15.70;70.00;;;;;;4208697;28;20059;-61
2022/12/27 09:13:30;;;;;;;8.05;2.05;;;15.70;69.30;;;;;;4207811;28;20066;-61
2022/12/27 09:16:13;;;;;;;4.05;1.60;;;15.80;68.90;;;;;;4206457;28;20529;-63
2022/12/27 09:18:56;;;;;;;6.13;1.80;;;15.80;68.50;;;;;;4206931;28;20920;-62
2022/12/27 09:21:41;;;;;;;7.18;2.05;;;15.80;68.10;;;;;;4207664;28;20062;-60
2022/12/27 09:24:22;;;;;;;21.13;2.03;;;15.90;67.40;;;;;;4207686;28;20075;-62
2022/12/27 09:27:03;;;;;;;7.57;1.92;;;15.90;67.20;;;;;;4207920;28;20132;-61
2022/12/27 09:29:44;;;;;;;6.60;1.73;;;16.00;67.10;;;;;;4208503;28;20055;-61
2022/12/27 09:32:28;;;;;;;6.68;1.60;;;16.00;66.80;;;;;;4208082;28;20224;-61
2022/12/27 09:35:09;;;;;;;7.35;1.90;;;16.10;66.40;;;;;;4208295;27;20051;-61
2022/12/27 09:37:51;;;;;;;;;;;16.10;67.10;;;;;;4208202;28;20058;-59
2022/12/27 09:40:32;;;;;;;5.45;1.52;;;16.10;68.00;;;;;;4207737;28;20005;-62
2022/12/27 09:43:14;;;;;;;10.40;2.40;;;16.10;68.70;;;;;;4205394;28;20055;-61
2022/12/27 09:46:05;;;;;;;6.90;1.85;;;16.10;68.80;;;;;;4207177;28;20858;-61
2022/12/27 09:48:49;;;;;;;6.70;2.15;;;16.20;68.80;;;;;;4206640;28;20805;-61
2022/12/27 09:51:35;;;;;;;9.00;2.33;;;16.20;68.20;;;;;;4207494;28;20051;-61
2022/12/27 09:54:23;;;;;;;5.75;1.70;;;16.30;67.70;;;;;;4207467;28;20414;-61
2022/12/27 09:57:09;;;;;;;11.05;2.83;;;16.20;67.50;;;;;;4207912;28;20140;-60
2022/12/27 10:00:04;;;;;;;8.73;2.20;;;16.20;67.40;;;;;;4207654;28;20162;-60
2022/12/27 10:02:46;;;;;;;6.10;1.90;;;16.20;67.10;;;;;;4207624;28;20405;-60
2022/12/27 10:05:33;;;;;;;7.32;2.30;;;16.20;66.90;;;;;;4207717;28;20059;-60
2022/12/27 10:08:29;;;;;;;4.75;2.33;;;16.20;66.90;;;;;;4207341;28;20054;-64
2022/12/27 10:14:27;;;;;;;8.65;1.92;;;16.20;66.70;;;;;;4207187;28;20054;-60
2022/12/27 10:17:13;;;;;;;8.48;2.08;;;16.20;66.40;;;;;;4206899;28;20645;-61
2022/12/27 10:20:03;;;;;;;5.68;2.67;;;16.20;66.40;;;;;;4206831;28;20124;-60
2022/12/27 10:22:48;;;;;;;9.43;2.13;;;16.20;66.20;;;;;;4207198;28;20055;-60
2022/12/27 10:25:30;;;;;;;5.43;2.20;;;16.20;66.00;;;;;;4207447;28;20047;-61
2022/12/27 10:28:16;;;;;;;5.95;2.35;;;16.20;66.00;;;;;;4206320;28;20055;-61
2022/12/27 10:31:02;;;;;;;4.18;2.15;;;16.10;65.90;;;;;;4206788;28;20097;-61
2022/12/27 10:33:44;;;;;;;7.50;1.95;;;16.10;65.90;;;;;;4207755;28;20043;-61
2022/12/27 10:36:27;;;;;;;8.45;1.80;;;16.00;66.10;;;;;;4207130;28;20403;-61
2022/12/27 10:39:18;;;;;;;8.88;1.65;;;15.90;66.30;;;;;;4207309;28;20058;-61
2022/12/27 10:42:08;;;;;;;7.93;1.70;;;16.00;66.20;;;;;;4207499;28;20055;-61
2022/12/27 10:44:50;;;;;;;8.52;1.88;;;15.90;66.10;;;;;;4207160;28;20588;-60
2022/12/27 10:47:31;;;;;;;7.10;2.20;;;16.00;66.10;;;;;;4207296;28;20738;-61
2022/12/27 10:50:15;;;;;;;5.65;1.67;;;16.00;66.10;;;;;;4205698;28;20144;-61
2022/12/27 10:53:02;;;;;;;8.30;2.25;;;16.00;65.90;;;;;;4202759;27;20448;-61
2022/12/27 10:55:44;;;;;;;6.72;1.52;;;16.00;65.80;;;;;;4194588;28;20150;-60
2022/12/27 10:58:37;;;;;;;7.88;1.80;;;15.90;65.80;;;;;;4195547;28;20101;-60
2022/12/27 11:01:23;;;;;;;6.75;2.00;;;15.90;65.80;;;;;;4210637;28;20075;-60
2022/12/27 11:04:11;;;;;;;6.28;1.85;;;16.00;65.80;;;;;;4206435;28;20054;-60
2022/12/27 11:07:13;;;;;;;6.03;1.60;;;16.00;65.60;;;;;;4205996;28;20145;-60
2022/12/27 11:10:07;;;;;;;4.72;1.63;;;16.00;65.30;;;;;;4206402;28;20055;-60
2022/12/27 11:13:00;;;;;;;8.65;1.50;;;16.00;66.00;;;;;;4205954;27;20070;-60
2022/12/27 11:15:53;;;;;;;7.35;2.22;;;16.00;65.10;;;;;;4206452;28;20082;-60
2022/12/27 11:18:46;;;;;;;6.38;1.63;;;16.00;65.40;;;;;;4206235;28;20108;-60
2022/12/27 11:21:28;;;;;;;6.57;1.60;;;15.90;65.40;;;;;;4206095;28;20047;-60
2022/12/27 11:24:16;;;;;;;5.97;1.42;;;15.90;65.40;;;;;;4206213;28;20059;-60
2022/12/27 11:26:58;;;;;;;6.10;1.73;;;15.90;65.30;;;;;;4204827;28;20132;-60
2022/12/27 11:29:44;;;;;;;7.13;1.55;;;16.00;65.60;;;;;;4206183;28;20055;-60
2022/12/27 11:32:25;;;;;;;8.77;1.90;;;16.00;65.60;;;;;;4206224;28;20051;-60
2022/12/27 11:35:17;;;;;;;5.00;1.75;;;16.00;65.50;;;;;;4204225;28;20089;-61
2022/12/27 11:37:57;;;;;;;;;;;16.00;65.20;;;;;;4205071;28;20506;-59
2022/12/27 11:40:38;;;;;;;10.13;2.78;;;16.00;65.40;;;;;;4204380;28;19942;-60
2022/12/27 11:43:24;;;;;;;6.45;1.73;;;16.00;65.40;;;;;;4205583;28;20079;-60
2022/12/27 11:46:13;;;;;;;6.05;1.55;;;16.00;65.60;;;;;;4206238;28;20482;-60
2022/12/27 11:48:57;;;;;;;4.13;1.30;;;15.90;65.50;;;;;;4206115;28;20923;-60
2022/12/27 11:52:01;;;;;;;7.68;1.58;;;15.80;65.80;;;;;;4206212;28;20051;-60
2022/12/27 11:55:23;;;;;;;7.57;2.13;;;15.80;65.70;;;;;;4205661;28;20054;-60
2022/12/27 11:58:30;;;;;;;9.55;2.63;;;15.80;65.40;;;;;;4205262;28;20067;-60
2022/12/27 12:01:43;;;;;;;3.67;1.85;;;15.90;65.10;;;;;;4205696;28;20051;-60
2022/12/27 12:05:15;;;;;;;6.25;1.55;;;15.90;65.00;;;;;;4199086;28;20063;-60
2022/12/27 12:08:32;;;;;;;8.55;2.25;;;15.90;65.10;;;;;;4170058;28;20051;-60
2022/12/27 12:11:24;;;;;;;8.77;2.22;;;15.90;65.50;;;;;;4169963;28;20055;-60
2022/12/27 12:14:42;;;;;;;5.50;1.60;;;15.80;66.00;;;;;;4202911;28;20063;-59
2022/12/27 12:18:02;;;;;;;6.50;1.60;;;15.80;66.20;;;;;;4205414;28;20474;-59
2022/12/27 12:21:08;;;;;;;10.75;1.73;;;15.80;66.30;;;;;;4206012;28;20173;-60
2022/12/27 12:24:05;;;;;;;7.65;1.67;;;15.80;67.00;;;;;;4205716;28;20149;-60
2022/12/27 12:26:56;;;;;;;5.75;2.00;;;15.80;67.50;;;;;;4204681;28;20051;-60
2022/12/27 12:30:03;;;;;;;7.65;1.65;;;15.80;67.70;;;;;;4206061;28;20512;-62
2022/12/27 12:32:59;;;;;;;7.57;1.92;;;15.80;67.50;;;;;;4205767;28;20051;-62
2022/12/27 12:36:06;;;;;;;6.65;1.52;;;15.80;68.00;;;;;;4193277;28;20051;-59
2022/12/27 12:38:53;;;;;;;6.18;1.58;;;15.80;68.00;;;;;;4155669;28;20057;-59
2022/12/27 12:42:00;;;;;;;4.90;1.40;;;15.70;68.20;;;;;;4143065;28;20069;-61
2022/12/27 12:45:05;;;;;;;6.10;1.80;;;15.70;68.50;;;;;;4146219;28;20107;-62
2022/12/27 12:48:07;;;;;;;6.20;1.77;;;15.60;68.70;;;;;;4139967;28;20177;-62
2022/12/27 12:51:07;;;;;;;9.45;2.50;;;15.60;68.80;;;;;;4157494;28;20056;-60
2022/12/27 12:54:05;;;;;;;10.73;2.17;;;15.50;68.80;;;;;;4158040;28;20165;-62
2022/12/27 12:57:07;;;;;;;7.90;2.45;;;15.50;69.10;;;;;;4142137;28;20076;-61
2022/12/27 13:00:07;;;;;;;7.60;2.20;;;15.40;69.50;;;;;;4157630;28;20060;-62
2022/12/27 13:03:20;;;;;;;5.80;2.20;;;15.40;69.60;;;;;;4142606;28;20507;-62
2022/12/27 13:06:12;;;;;;;8.20;2.28;;;15.40;69.40;;;;;;4158081;28;20511;-61
2022/12/27 13:09:02;;;;;;;8.70;1.88;;;15.40;70.00;;;;;;4143261;28;20053;-61
2022/12/27 13:11:53;;;;;;;7.32;2.45;;;15.40;69.90;;;;;;4152618;28;20056;-61
2022/12/27 13:14:54;;;;;;;8.00;2.33;;;15.30;70.80;;;;;;4187060;28;20106;-60
2022/12/27 13:17:44;;;;;;;10.63;2.25;;;15.30;69.80;;;;;;4185973;28;20059;-61
2022/12/27 13:20:49;;;;;;;8.07;2.05;;;15.20;70.10;;;;;;4190578;28;20067;-61
2022/12/27 13:23:44;;;;;;;7.15;1.83;;;15.20;69.90;;;;;;4150594;28;20526;-61
2022/12/27 13:26:38;;;;;;;8.05;1.90;;;15.10;70.00;;;;;;4188441;28;20051;-62
2022/12/27 13:29:36;;;;;;;8.02;2.13;;;15.00;70.20;;;;;;4184692;28;20676;-61
2022/12/27 13:32:27;;;;;;;6.28;2.10;;;15.00;70.30;;;;;;4189615;28;20068;-61
2022/12/27 13:35:28;;;;;;;7.53;2.50;;;15.00;70.50;;;;;;4179923;28;20094;-61
2022/12/27 13:38:26;;;;;;;5.00;2.05;;;14.90;70.40;;;;;;4176693;28;20080;-61
2022/12/27 13:41:21;;;;;;;7.80;2.08;;;14.90;70.70;;;;;;4177775;28;20125;-61
2022/12/27 13:44:36;;;;;;;9.63;2.88;;;15.00;70.50;;;;;;4178155;28;20094;-61
2022/12/27 13:47:55;;;;;;;6.03;1.88;;;15.10;70.00;;;;;;4182197;28;20047;-61
2022/12/27 13:50:56;;;;;;;8.68;2.83;;;15.20;69.40;;;;;;4132940;28;20369;-61
2022/12/27 13:54:05;;;;;;;4.50;2.40;;;15.30;68.80;;;;;;4183169;28;20059;-60
2022/12/27 13:57:01;;;;;;;4.82;1.83;;;15.40;68.40;;;;;;4184923;28;20059;-60
2022/12/27 14:00:18;;;;;;;8.48;2.70;;;15.40;67.90;;;;;;4185837;28;20193;-61
2022/12/27 14:03:46;;;;;;;7.95;3.08;;;15.40;67.70;;;;;;4182430;28;20175;-61
2022/12/27 14:07:00;;;;;;;10.25;3.13;;;15.40;67.40;;;;;;4178326;28;20077;-61
2022/12/27 14:10:02;;;;;;;5.72;2.78;;;15.50;67.10;;;;;;4173611;28;20056;-60
2022/12/27 14:12:56;;;;;;;8.70;2.58;;;15.60;66.80;;;;;;4179588;28;20097;-60
2022/12/27 14:16:07;;;;;;;6.93;2.30;;;15.60;66.60;;;;;;4167145;28;20071;-61
2022/12/27 14:19:12;;;;;;;9.55;2.72;;;15.60;66.60;;;;;;4168775;28;20109;-62
2022/12/27 14:22:21;;;;;;;7.72;2.80;;;15.60;66.70;;;;;;4192130;28;20121;-62
2022/12/27 14:25:39;;;;;;;8.10;3.33;;;15.60;66.70;;;;;;4191982;28;20051;-63
2022/12/27 14:28:56;;;;;;;10.27;3.47;;;15.60;66.50;;;;;;4192341;28;20078;-63
2022/12/27 14:32:12;;;;;;;8.32;2.75;;;15.60;66.40;;;;;;4188008;28;20133;-62
2022/12/27 14:35:35;;;;;;;6.47;2.42;;;15.60;66.70;;;;;;4191520;28;20063;-63
2022/12/27 14:38:48;;;;;;;12.15;3.00;;;15.60;66.50;;;;;;4190745;28;20055;-62
2022/12/27 14:42:18;;;;;;;6.43;3.10;;;15.60;66.30;;;;;;4167326;28;20133;-62
2022/12/27 14:45:32;;;;;;;12.18;3.53;;;15.60;66.30;;;;;;4191638;28;20402;-62
2022/12/27 14:48:49;;;;;;;9.10;3.70;;;15.70;66.20;;;;;;4188476;28;20052;-63
2022/12/27 14:51:51;;;;;;;5.55;2.72;;;15.70;65.80;;;;;;4188736;28;20063;-62
2022/12/27 14:55:16;;;;;;;7.60;3.20;;;15.70;65.90;;;;;;4183826;28;20112;-61
2022/12/27 14:58:17;;;;;;;10.32;3.65;;;15.70;66.00;;;;;;4171795;28;20051;-61
2022/12/27 15:01:06;;;;;;;6.80;3.88;;;15.60;66.10;;;;;;4189169;28;20106;-62
2022/12/27 15:03:59;;;;;;;10.63;3.75;;;15.60;66.40;;;;;;4179344;28;20051;-62
2022/12/27 15:06:56;;;;;;;9.65;4.07;;;15.50;66.40;;;;;;4179150;28;20117;-62
2022/12/27 15:09:48;;;;;;;7.90;3.50;;;15.40;66.50;;;;;;4191173;28;20055;-62
2022/12/27 15:12:39;;;;;;;8.60;3.28;;;15.50;66.90;;;;;;4190900;28;20561;-62
2022/12/27 15:15:36;;;;;;;9.63;3.63;;;15.50;66.80;;;;;;4191276;28;20070;-62
2022/12/27 15:18:43;;;;;;;7.78;2.80;;;15.60;66.40;;;;;;4192468;28;20064;-62
2022/12/27 15:21:43;;;;;;;6.80;3.13;;;15.60;65.90;;;;;;4191458;28;20060;-63
2022/12/27 15:24:34;;;;;;;8.82;3.45;;;15.70;65.60;;;;;;4191248;28;20206;-62
2022/12/27 15:27:24;;;;;;;8.30;3.13;;;15.70;65.70;;;;;;4191719;28;20060;-62
2022/12/27 15:30:20;;;;;;;9.40;3.50;;;15.70;65.50;;;;;;4192434;28;20082;-62
2022/12/27 15:33:07;;;;;;;6.30;3.55;;;15.80;65.20;;;;;;4191149;28;20055;-62
2022/12/27 15:35:55;;;;;;;6.22;4.38;;;15.80;65.10;;;;;;4192556;28;20109;-62
2022/12/27 15:38:44;;;;;;;7.80;4.13;;;15.80;65.10;;;;;;4191426;28;20470;-62
2022/12/27 15:41:57;;;;;;;6.03;3.80;;;15.80;65.10;;;;;;4191363;28;20399;-63
2022/12/27 15:44:52;;;;;;;8.80;4.63;;;15.80;64.90;;;;;;4203300;28;20075;-62
2022/12/27 15:48:13;;;;;;;8.13;4.45;;;15.80;64.80;;;;;;4174595;28;20064;-62
2022/12/27 15:51:05;;;;;;;6.60;4.65;;;15.80;64.90;;;;;;4176697;28;20129;-62
2022/12/27 15:54:07;;;;;;;10.15;4.80;;;15.80;65.10;;;;;;4195564;28;20063;-62
2022/12/27 15:57:15;;;;;;;8.82;4.88;;;15.70;65.10;;;;;;4207474;28;20469;-62
2022/12/27 16:00:13;;;;;;;11.40;5.53;;;15.70;65.50;;;;;;4207677;28;20051;-62
2022/12/27 16:02:56;;;;;;;10.85;5.72;;;15.60;65.70;;;;;;4190391;28;20498;-63
2022/12/27 16:05:44;;;;;;;9.23;5.45;;;15.60;66.20;;;;;;4191970;28;20076;-64
2022/12/27 16:08:35;;;;;;;7.47;5.18;;;15.60;66.50;;;;;;4190728;28;20063;-63
2022/12/27 16:11:17;;;;;;;11.23;5.18;;;15.90;66.00;;;;;;4190759;28;20051;-64
2022/12/27 16:14:23;;;;;;;10.10;5.47;;;16.30;64.80;;;;;;4198117;28;20125;-64
2022/12/27 16:17:28;;;;;;;10.20;5.47;;;16.70;63.50;;;;;;4190340;28;20047;-63